Time;durP1;ratioP1;P1;durP2;ratioP2;P2;SDS_P1;SDS_P2;PMS_P1;PMS_P2;Temp;Humidity;BMP_temperature;BMP_pressure;BME280_temperature;BME280_humidity;BME280_pressure;Samples;Min_cycle;Max_cycle;Signal;HPM_P1;HPM_P2
2023/06/08 00:02:04;;;;;;;4.25;2.95;;;;;;;20.22;100.00;101140.75;5102278;28;20020;-71
2023/06/08 00:04:52;;;;;;;3.85;2.70;;;;;;;20.42;100.00;101148.59;5116697;28;20483;-71
2023/06/08 00:07:40;;;;;;;5.18;2.95;;;;;;;20.42;100.00;101147.72;5116696;28;20031;-70
2023/06/08 00:10:26;;;;;;;7.35;3.30;;;;;;;20.10;100.00;101145.81;5115978;27;20059;-71
2023/06/08 00:13:13;;;;;;;6.53;2.80;;;;;;;20.30;100.00;101143.91;5117176;28;20024;-71
2023/06/08 00:16:00;;;;;;;7.18;3.08;;;;;;;20.49;100.00;101149.16;5115574;28;20033;-71
2023/06/08 00:18:46;;;;;;;3.58;2.80;;;;;;;20.44;100.00;101145.84;5116212;28;20027;-72
2023/06/08 00:21:33;;;;;;;12.82;3.53;;;;;;;20.27;100.00;101144.06;5118044;28;20081;-72
2023/06/08 00:24:19;;;;;;;5.10;2.92;;;;;;;20.41;100.00;101144.19;5115996;28;20440;-72
2023/06/08 00:27:05;;;;;;;5.47;2.92;;;;;;;20.61;100.00;101140.53;5116149;28;20345;-72
2023/06/08 00:29:51;;;;;;;5.10;3.20;;;;;;;20.66;100.00;101141.16;5116338;28;20123;-72
2023/06/08 00:32:37;;;;;;;6.15;2.95;;;;;;;20.54;100.00;101137.28;5116549;28;20057;-72
2023/06/08 00:35:23;;;;;;;4.25;2.97;;;;;;;20.80;100.00;101134.16;5116657;28;20451;-71
2023/06/08 00:38:08;;;;;;;5.18;3.38;;;;;;;20.69;100.00;101133.84;5115920;28;20156;-72
2023/06/08 00:40:54;;;;;;;9.55;3.45;;;;;;;20.40;100.00;101130.97;5116230;28;20028;-71
2023/06/08 00:43:43;;;;;;;7.28;3.05;;;;;;;20.35;100.00;101133.88;5117019;28;20035;-71
2023/06/08 00:46:30;;;;;;;4.45;3.15;;;;;;;20.45;100.00;101140.44;5114712;28;20031;-71
2023/06/08 00:49:18;;;;;;;5.43;3.20;;;;;;;20.16;100.00;101134.84;5116867;28;20032;-72
2023/06/08 00:52:07;;;;;;;9.93;3.40;;;;;;;20.49;100.00;101128.69;5117026;28;20027;-71
2023/06/08 00:54:54;;;;;;;5.88;2.83;;;;;;;20.30;100.00;101135.91;5100237;28;20451;-71
2023/06/08 00:57:47;;;;;;;4.97;2.78;;;;;;;19.87;100.00;101138.06;5101637;28;20036;-71
2023/06/08 01:00:33;;;;;;;4.38;3.28;;;;;;;19.53;100.00;101132.66;5114798;28;20098;-72
2023/06/08 01:03:19;;;;;;;6.05;3.35;;;;;;;19.49;100.00;101142.56;5137509;27;20087;-71
2023/06/08 01:06:08;;;;;;;5.70;3.05;;;;;;;19.68;100.00;101135.44;5115413;28;20020;-71
2023/06/08 01:09:24;;;;;;;7.40;3.63;;;;;;;18.96;100.00;101138.84;5117114;28;20051;-70
2023/06/08 01:12:55;;;;;;;5.95;3.08;;;;;;;19.17;100.00;101135.22;5100239;28;20478;-71
2023/06/08 01:15:56;;;;;;;5.43;3.17;;;;;;;19.44;100.00;101144.59;5083793;28;20140;-72
2023/06/08 01:18:44;;;;;;;6.35;3.40;;;;;;;19.35;100.00;101149.47;5116239;28;20024;-71
2023/06/08 01:21:33;;;;;;;4.35;3.20;;;;;;;19.17;100.00;101141.38;5100186;28;20428;-72
2023/06/08 01:24:20;;;;;;;4.25;3.20;;;;;;;19.38;100.00;101149.31;5101284;28;20352;-72
2023/06/08 01:27:09;;;;;;;6.13;3.50;;;;;;;19.35;100.00;101147.69;5114912;28;20364;-71
2023/06/08 01:29:55;;;;;;;7.00;3.40;;;;;;;19.31;100.00;101146.09;5100880;28;20028;-72
2023/06/08 01:32:41;;;;;;;4.72;3.47;;;;;;;19.21;100.00;101142.97;5101747;28;20104;-71
2023/06/08 01:35:26;;;;;;;4.80;3.20;;;;;;;18.99;100.00;101142.22;5103810;28;20042;-71
2023/06/08 01:38:48;;;;;;;6.50;3.38;;;;;;;19.20;100.00;101137.72;5117348;28;20363;-70
2023/06/08 01:41:41;;;;;;;4.95;3.53;;;;;;;19.47;100.00;101144.44;5110118;28;20035;-71
2023/06/08 01:44:30;;;;;;;5.80;3.30;;;;;;;19.26;100.00;101142.81;5116335;28;20499;-71
2023/06/08 01:47:17;;;;;;;11.43;3.60;;;;;;;19.43;100.00;101142.88;5122009;28;20027;-72
2023/06/08 01:50:06;;;;;;;7.28;3.65;;;;;;;19.28;100.00;101140.91;5125929;28;20432;-71
2023/06/08 01:52:55;;;;;;;6.72;3.90;;;;;;;18.98;100.00;101143.13;5114367;28;20034;-71
2023/06/08 01:55:40;;;;;;;6.63;3.58;;;;;;;19.36;100.00;101141.41;5114256;28;20062;-71
2023/06/08 01:58:26;;;;;;;6.85;3.70;;;;;;;19.17;100.00;101152.00;5115025;28;20023;-72
2023/06/08 02:01:12;;;;;;;7.40;3.80;;;;;;;19.17;100.00;101145.84;5113969;28;20020;-72
2023/06/08 02:03:57;;;;;;;4.72;3.53;;;;;;;19.13;100.00;101145.09;5130525;28;20011;-72
2023/06/08 02:06:43;;;;;;;7.53;4.10;;;;;;;19.31;100.00;101139.91;5104578;28;20119;-71
2023/06/08 02:09:29;;;;;;;5.32;3.88;;;;;;;19.08;100.00;101143.59;5115570;28;20015;-71
2023/06/08 02:12:15;;;;;;;6.13;4.30;;;;;;;18.73;100.00;101146.97;5106641;28;20074;-71
2023/06/08 02:15:01;;;;;;;7.38;3.75;;;;;;;18.38;100.00;101140.56;5114686;28;20028;-72
2023/06/08 02:17:47;;;;;;;5.57;3.70;;;;;;;17.94;100.00;101145.94;5100205;28;20042;-72
2023/06/08 02:20:33;;;;;;;4.55;3.58;;;;;;;17.75;100.00;101135.22;5115517;28;20501;-71
2023/06/08 02:23:19;;;;;;;5.90;4.30;;;;;;;17.60;100.00;101145.56;5114673;28;20033;-72
2023/06/08 02:26:08;;;;;;;8.23;4.35;;;;;;;18.03;100.00;101141.13;5115110;28;20035;-71
2023/06/08 02:28:54;;;;;;;6.15;4.07;;;;;;;17.51;100.00;101145.91;5099594;28;20100;-71
2023/06/08 02:31:39;;;;;;;5.78;4.07;;;;;;;17.76;100.00;101142.22;5114564;28;20035;-72
2023/06/08 02:34:25;;;;;;;5.18;4.05;;;;;;;17.99;100.00;101146.59;5114611;28;20106;-72
2023/06/08 02:37:11;;;;;;;5.90;4.25;;;;;;;18.06;100.00;101150.72;5100042;28;20100;-72
2023/06/08 02:39:57;;;;;;;8.38;4.22;;;;;;;18.20;100.00;101148.34;5114594;28;20460;-73
2023/06/08 02:42:43;;;;;;;8.82;5.30;;;;;;;18.07;100.00;101153.31;5114040;28;20110;-72
2023/06/08 02:45:28;;;;;;;10.27;5.72;;;;;;;17.94;100.00;101154.75;5113747;28;20100;-72
2023/06/08 02:48:14;;;;;;;18.77;6.72;;;;;;;18.04;100.00;101157.88;5114340;28;20039;-73
2023/06/08 02:51:00;;;;;;;9.65;6.38;;;;;;;18.01;100.00;101163.31;5113780;28;20030;-71
2023/06/08 02:53:46;;;;;;;9.23;5.68;;;;;;;17.75;100.00;101156.41;5113890;28;20042;-71
2023/06/08 02:56:31;;;;;;;10.55;6.50;;;;;;;17.03;100.00;101163.59;5114455;28;20329;-72
2023/06/08 02:59:18;;;;;;;10.13;6.13;;;;;;;17.42;100.00;101170.97;5114380;28;20325;-72
2023/06/08 03:02:04;;;;;;;11.95;6.75;;;;;;;17.13;100.00;101167.66;5114648;28;20089;-71
2023/06/08 03:04:52;;;;;;;11.45;7.63;;;;;;;17.55;100.00;101176.66;5113682;28;20035;-72
2023/06/08 03:07:40;;;;;;;14.52;6.93;;;;;;;17.64;100.00;101176.31;5113874;28;20028;-72
2023/06/08 03:10:26;;;;;;;13.10;6.65;;;;;;;17.68;100.00;101181.44;5113763;28;20092;-71
2023/06/08 03:13:12;;;;;;;10.73;7.00;;;;;;;17.75;100.00;101179.41;5097170;28;20429;-71
2023/06/08 03:15:58;;;;;;;9.13;6.80;;;;;;;17.82;100.00;101179.09;5082625;28;20036;-72
2023/06/08 03:18:44;;;;;;;12.93;6.38;;;;;;;17.87;100.00;101176.25;5097445;28;20036;-72
2023/06/08 03:21:30;;;;;;;11.25;6.60;;;;;;;17.86;100.00;101175.41;5097192;28;20039;-72
2023/06/08 03:24:16;;;;;;;12.60;6.00;;;;;;;17.67;100.00;101185.00;5097515;28;20034;-72
2023/06/08 03:27:03;;;;;;;10.20;6.35;;;;;;;17.53;100.00;101182.00;5083754;28;20412;-72
2023/06/08 03:29:48;;;;;;;11.13;6.80;;;;;;;17.81;100.00;101179.16;5097786;28;20460;-72
2023/06/08 03:32:34;;;;;;;9.20;6.47;;;;;;;17.95;100.00;101176.81;5096694;28;20024;-72
2023/06/08 03:35:20;;;;;;;16.58;6.80;;;;;;;18.40;100.00;101172.28;5095465;28;20035;-71
2023/06/08 03:38:06;;;;;;;11.07;6.78;;;;;;;18.35;100.00;101163.69;5096245;28;20047;-71
2023/06/08 03:40:52;;;;;;;13.77;6.93;;;;;;;17.91;100.00;101168.13;5082432;28;20475;-72
2023/06/08 03:43:37;;;;;;;13.50;6.68;;;;;;;18.03;100.00;101175.59;5081368;28;20364;-72
2023/06/08 03:46:24;;;;;;;8.82;6.20;;;;;;;18.34;100.00;101172.56;5098227;28;20096;-72
2023/06/08 03:49:10;;;;;;;10.00;5.80;;;;;;;18.08;100.00;101167.44;5099915;28;20097;-70
2023/06/08 03:51:55;;;;;;;13.55;6.07;;;;;;;18.51;100.00;101173.59;5097337;28;20039;-71
2023/06/08 03:54:41;;;;;;;15.95;6.60;;;;;;;18.62;100.00;101170.47;5097312;28;20048;-71
2023/06/08 03:57:27;;;;;;;10.02;5.82;;;;;;;18.39;100.00;101167.91;5096899;28;20016;-72
2023/06/08 04:00:13;;;;;;;15.30;6.50;;;;;;;18.45;100.00;101165.88;5096337;28;20368;-72
2023/06/08 04:03:00;;;;;;;13.35;6.80;;;;;;;18.27;100.00;101181.66;5081661;28;20036;-73
2023/06/08 04:05:47;;;;;;;12.98;6.97;;;;;;;18.48;100.00;101175.47;5082038;28;20115;-75
2023/06/08 04:08:32;;;;;;;10.10;6.70;;;;;;;18.57;100.00;101175.13;5096044;28;20024;-77
2023/06/08 04:11:18;;;;;;;12.43;7.03;;;;;;;18.16;100.00;101184.75;5106060;28;20120;-78
2023/06/08 04:14:04;;;;;;;12.48;6.30;;;;;;;18.41;100.00;101174.03;5117881;28;20073;-78
2023/06/08 04:16:50;;;;;;;12.20;7.45;;;;;;;18.60;100.00;101180.28;5117796;28;20038;-78
2023/06/08 04:19:35;;;;;;;10.52;6.43;;;;;;;18.19;100.00;101179.34;5116898;28;20024;-77
2023/06/08 04:22:22;;;;;;;10.35;6.60;;;;;;;18.81;100.00;101184.69;5102787;28;20028;-77
2023/06/08 04:25:08;;;;;;;12.43;6.28;;;;;;;19.18;100.00;101174.97;5117335;28;20027;-77
2023/06/08 04:27:57;;;;;;;17.70;7.53;;;;;;;19.12;100.00;101174.41;5116135;28;20461;-79
2023/06/08 04:30:44;;;;;;;11.32;6.68;;;;;;;19.28;100.00;101175.47;5117396;28;20027;-77
2023/06/08 04:33:31;;;;;;;13.93;6.90;;;;;;;19.47;100.00;101175.47;5117281;28;20024;-76
2023/06/08 04:36:17;;;;;;;14.18;6.65;;;;;;;19.63;100.00;101171.16;5101811;28;20028;-78
2023/06/08 04:39:02;;;;;;;15.73;6.32;;;;;;;19.64;100.00;101176.41;5115335;28;20080;-77
2023/06/08 04:41:49;;;;;;;10.02;5.63;;;;;;;19.77;100.00;101177.53;5115935;28;20023;-78
2023/06/08 04:44:35;;;;;;;10.50;5.65;;;;;;;19.55;100.00;101181.28;5116953;28;20039;-77
2023/06/08 04:47:20;;;;;;;10.75;5.80;;;;;;;19.59;100.00;101181.09;5116276;28;20019;-76
2023/06/08 04:50:09;;;;;;;8.13;5.63;;;;;;;20.14;100.00;101174.88;5115691;28;20024;-77
2023/06/08 04:52:56;;;;;;;13.23;5.88;;;;;;;20.17;100.00;101173.84;5115332;28;20516;-77
2023/06/08 04:55:45;;;;;;;8.57;5.38;;;;;;;20.08;100.00;101175.13;5116614;28;20030;-78
2023/06/08 04:58:31;;;;;;;11.18;5.60;;;;;;;20.55;100.00;101171.00;5115403;28;20088;-77
2023/06/08 05:01:17;;;;;;;10.00;5.68;;;;;;;20.30;100.00;101164.31;5116155;28;20043;-77
2023/06/08 05:04:07;;;;;;;9.82;5.60;;;;;;;20.61;100.00;101162.66;5116248;28;20024;-78
2023/06/08 05:06:52;;;;;;;14.30;6.65;;;;;;;20.04;100.00;101173.56;5100609;28;20443;-78
2023/06/08 05:09:39;;;;;;;11.50;6.18;;;;;;;19.91;100.00;101176.88;5100611;28;20032;-77
2023/06/08 05:12:25;;;;;;;11.57;6.65;;;;;;;20.24;100.00;101185.91;5115810;28;20495;-77
2023/06/08 05:15:11;;;;;;;11.40;6.30;;;;;;;20.31;100.00;101182.00;5101157;28;20401;-78
2023/06/08 05:17:57;;;;;;;10.10;6.72;;;;;;;19.96;100.00;101193.47;5115384;28;20337;-78
2023/06/08 05:20:43;;;;;;;10.27;6.32;;;;;;;19.44;100.00;101194.25;5115215;28;20035;-77
2023/06/08 05:23:29;;;;;;;14.55;7.00;;;;;;;19.53;100.00;101186.66;5102504;28;20038;-76
2023/06/08 05:26:15;;;;;;;14.02;7.75;;;;;;;19.42;100.00;101198.75;5101639;28;20051;-79
2023/06/08 05:29:01;;;;;;;14.45;7.20;;;;;;;20.11;100.00;101198.09;5116499;28;20412;-77
2023/06/08 05:31:49;;;;;;;14.85;7.30;;;;;;;19.75;100.00;101205.13;5115446;28;20027;-77
2023/06/08 05:34:34;;;;;;;16.02;8.32;;;;;;;19.43;100.00;101205.78;5115083;28;20020;-77
2023/06/08 05:37:20;;;;;;;15.98;8.27;;;;;;;19.96;100.00;101207.66;5093483;28;20028;-77
2023/06/08 05:40:07;;;;;;;15.65;7.75;;;;;;;20.00;100.00;101206.56;5099793;28;20114;-77
2023/06/08 05:42:53;;;;;;;19.60;6.78;;;;;;;20.19;100.00;101210.09;5101030;28;20034;-77
2023/06/08 05:45:39;;;;;;;24.73;7.57;;;;;;;20.53;100.00;101211.94;5118042;28;20027;-76
2023/06/08 05:48:25;;;;;;;11.30;6.70;;;;;;;20.19;100.00;101212.75;5101983;28;20027;-76
2023/06/08 05:51:10;;;;;;;15.85;6.35;;;;;;;20.87;100.00;101212.81;5115042;28;20030;-77
2023/06/08 05:53:56;;;;;;;13.60;6.75;;;;;;;20.93;100.00;101217.00;5115048;28;20035;-77
2023/06/08 05:56:42;;;;;;;10.63;6.40;;;;;;;21.09;100.00;101217.91;5114500;28;20033;-77
2023/06/08 05:59:28;;;;;;;11.15;6.30;;;;;;;20.66;100.00;101219.22;5114870;28;20028;-76
2023/06/08 06:02:14;;;;;;;12.40;6.40;;;;;;;20.94;100.00;101226.69;5101376;28;20106;-78
2023/06/08 06:05:00;;;;;;;10.45;5.88;;;;;;;21.20;100.00;101219.06;5101782;28;20050;-77
2023/06/08 06:07:45;;;;;;;8.40;5.35;;;;;;;21.26;100.00;101218.72;5131411;28;20056;-76
2023/06/08 06:10:31;;;;;;;11.05;5.78;;;;;;;21.35;100.00;101218.25;5126742;28;20044;-76
2023/06/08 06:13:17;;;;;;;12.65;5.50;;;;;;;21.54;100.00;101213.63;5130566;28;20034;-78
2023/06/08 06:16:02;;;;;;;16.77;6.60;;;;;;;22.02;100.00;101218.94;5116658;28;20020;-78
2023/06/08 06:18:48;;;;;;;23.65;7.07;;;;;;;22.16;100.00;101219.03;5115647;28;20045;-78
2023/06/08 06:21:34;;;;;;;18.20;6.55;;;;;;;22.11;100.00;101226.41;5099601;28;20145;-77
2023/06/08 06:24:20;;;;;;;13.93;6.22;;;;;;;21.53;100.00;101227.91;5114685;28;20092;-77
2023/06/08 06:27:06;;;;;;;10.48;6.63;;;;;;;21.84;100.00;101232.44;5114322;28;20110;-77
2023/06/08 06:29:54;;;;;;;14.05;6.28;;;;;;;22.25;100.00;101225.63;5100139;28;20325;-77
2023/06/08 06:32:40;;;;;;;13.38;6.43;;;;;;;21.72;100.00;101230.44;5115494;28;20028;-76
2023/06/08 06:35:26;;;;;;;12.07;6.57;;;;;;;21.48;100.00;101219.31;5100917;28;20027;-77
2023/06/08 06:38:35;;;;;;;11.73;6.22;;;;;;;21.89;100.00;101219.69;5108982;28;20027;-78
2023/06/08 06:41:25;;;;;;;15.18;6.40;;;;;;;22.00;100.00;101220.84;5101958;28;20043;-77
2023/06/08 06:44:11;;;;;;;12.50;5.93;;;;;;;22.30;100.00;101213.72;5114265;28;20073;-78
2023/06/08 06:46:57;;;;;;;8.43;4.97;;;;;;;22.15;100.00;101209.28;5099453;28;20035;-76
2023/06/08 06:49:49;;;;;;;10.68;4.90;;;;;;;22.66;100.00;101198.25;5098920;28;20020;-78
2023/06/08 06:52:35;;;;;;;9.30;5.18;;;;;;;23.04;100.00;101203.97;5114276;28;20035;-77
2023/06/08 06:55:21;;;;;;;11.85;4.88;;;;;;;23.07;100.00;101201.97;5091134;28;20047;-77
2023/06/08 06:58:08;;;;;;;38.75;5.10;;;;;;;23.20;100.00;101199.44;5114935;28;20538;-76
2023/06/08 07:00:55;;;;;;;13.63;5.03;;;;;;;23.12;100.00;101189.16;5114089;28;20110;-76
2023/06/08 07:03:44;;;;;;;8.82;4.88;;;;;;;23.42;100.00;101195.31;5114466;28;20023;-77
2023/06/08 07:06:30;;;;;;;11.32;5.18;;;;;;;23.92;100.00;101191.28;5114448;28;20078;-77
2023/06/08 07:09:16;;;;;;;9.07;5.05;;;;;;;23.63;100.00;101187.78;5099566;28;20448;-77
2023/06/08 07:12:02;;;;;;;9.95;5.20;;;;;;;23.17;100.00;101187.09;5113461;28;20048;-77
2023/06/08 07:14:48;;;;;;;11.93;4.93;;;;;;;23.63;100.00;101189.56;5113625;28;20031;-77
2023/06/08 07:17:36;;;;;;;11.13;5.10;;;;;;;24.07;100.00;101185.75;5114293;28;20329;-78
2023/06/08 07:20:22;;;;;;;7.40;4.22;;;;;;;24.33;100.00;101178.69;5114519;28;20467;-77
2023/06/08 07:23:08;;;;;;;6.75;3.80;;;;;;;24.25;97.41;101183.69;5114205;28;20023;-77
2023/06/08 07:25:53;;;;;;;10.63;5.57;;;;;;;24.74;96.18;101184.81;5114086;28;20023;-76
2023/06/08 07:28:39;;;;;;;5.35;3.97;;;;;;;24.62;96.65;101174.94;5113743;28;20028;-77
2023/06/08 07:31:26;;;;;;;6.28;4.10;;;;;;;24.71;94.91;101177.84;5098430;28;20073;-77
2023/06/08 07:34:12;;;;;;;11.80;4.03;;;;;;;25.41;91.97;101189.91;5113674;28;20051;-78
2023/06/08 07:36:58;;;;;;;8.32;4.18;;;;;;;25.49;93.22;101177.66;5100654;28;20020;-77
2023/06/08 07:39:44;;;;;;;10.27;4.43;;;;;;;25.71;89.75;101180.50;5099434;28;20024;-77
2023/06/08 07:42:30;;;;;;;6.85;3.88;;;;;;;26.27;86.65;101170.97;5098895;28;20447;-77
2023/06/08 07:45:15;;;;;;;7.18;3.60;;;;;;;25.89;82.18;101173.81;5098834;28;20058;-77
2023/06/08 07:48:01;;;;;;;5.63;3.70;;;;;;;25.74;83.81;101182.97;5099211;28;20100;-76
2023/06/08 07:50:47;;;;;;;5.35;3.63;;;;;;;25.76;84.76;101169.44;5099832;28;20367;-76
2023/06/08 07:53:37;;;;;;;10.00;3.80;;;;;;;25.89;85.83;101175.63;5114115;28;20073;-77
2023/06/08 07:56:26;;;;;;;9.05;4.72;;;;;;;26.51;81.49;101171.78;5115722;28;20055;-77
2023/06/08 07:59:11;;;;;;;9.65;4.20;;;;;;;26.44;78.50;101167.88;5103195;28;20505;-76
2023/06/08 08:01:57;;;;;;;4.05;3.40;;;;;;;26.66;74.02;101178.72;5117492;28;20036;-77
2023/06/08 08:04:43;;;;;;;4.40;3.38;;;;;;;26.78;73.82;101167.03;5117469;28;20413;-81
2023/06/08 08:07:29;;;;;;;10.32;5.38;;;;;;;26.93;76.26;101161.31;5117988;28;20399;-80
2023/06/08 08:10:15;;;;;;;5.65;3.60;;;;;;;27.28;72.95;101174.69;5116759;28;20042;-80
2023/06/08 08:13:00;;;;;;;4.55;3.25;;;;;;;28.22;71.03;101178.66;5102654;28;20070;-78
2023/06/08 08:15:46;;;;;;;8.23;3.92;;;;;;;28.56;68.07;101188.34;5117857;28;20031;-77
2023/06/08 08:18:32;;;;;;;3.92;3.17;;;;;;;27.79;62.81;101175.03;5101862;28;20023;-78
2023/06/08 08:21:18;;;;;;;5.15;3.30;;;;;;;27.61;65.36;101176.53;5102210;28;20032;-78
2023/06/08 08:24:05;;;;;;;6.05;3.15;;;;;;;28.23;62.59;101183.91;5117232;28;20019;-77
2023/06/08 08:26:55;;;;;;;4.97;3.13;;;;;;;27.71;62.99;101182.88;5102194;28;20031;-77
2023/06/08 08:29:40;;;;;;;4.85;2.90;;;;;;;27.37;66.77;101179.38;5117533;28;20316;-77
2023/06/08 08:32:26;;;;;;;6.47;3.38;;;;;;;28.13;64.30;101177.59;5102602;28;20023;-77
2023/06/08 08:35:12;;;;;;;7.85;3.22;;;;;;;28.49;62.95;101176.38;5116750;28;20031;-77
2023/06/08 08:37:58;;;;;;;6.57;3.22;;;;;;;27.68;65.27;101173.22;5116286;28;20023;-77
2023/06/08 08:40:44;;;;;;;13.00;3.40;;;;;;;28.86;62.27;101167.72;5116557;28;20030;-78
2023/06/08 08:43:34;;;;;;;4.45;3.08;;;;;;;28.68;57.89;101158.47;5116395;28;20028;-78
2023/06/08 08:46:23;;;;;;;6.32;2.95;;;;;;;28.58;56.79;101168.38;5117170;28;20385;-77
2023/06/08 08:49:15;;;;;;;13.73;3.45;;;;;;;28.70;51.11;101170.00;5101589;28;20028;-77
2023/06/08 08:52:01;;;;;;;6.25;3.28;;;;;;;28.66;50.89;101165.88;5116400;28;20397;-77
2023/06/08 08:54:55;;;;;;;12.45;3.72;;;;;;;28.73;51.17;101168.91;5116874;28;20465;-78
2023/06/08 08:57:41;;;;;;;3.30;2.80;;;;;;;29.22;52.27;101172.66;5100215;28;20093;-78
2023/06/08 09:00:27;;;;;;;8.52;3.35;;;;;;;29.11;51.80;101179.94;5100807;28;20059;-77
2023/06/08 09:03:13;;;;;;;4.60;3.22;;;;;;;28.45;54.31;101162.28;5101612;28;20023;-77
2023/06/08 09:05:59;;;;;;;4.25;3.17;;;;;;;28.48;51.16;101164.72;5101633;28;20042;-78
2023/06/08 09:08:47;;;;;;;5.30;3.60;;;;;;;28.72;51.43;101167.19;5099895;28;20031;-77
2023/06/08 09:11:34;;;;;;;12.50;3.90;;;;;;;29.12;53.29;101165.47;5115792;28;20380;-77
2023/06/08 09:14:20;;;;;;;8.65;3.50;;;;;;;29.57;52.11;101165.00;5100862;28;20023;-77
2023/06/08 09:17:07;;;;;;;9.25;4.05;;;;;;;29.62;52.11;101153.78;5100933;28;20462;-77
2023/06/08 09:19:53;;;;;;;6.80;3.70;;;;;;;30.14;50.73;101157.03;5115523;28;20031;-77
2023/06/08 09:22:39;;;;;;;6.78;3.33;;;;;;;29.37;53.13;101154.25;5115774;28;20468;-77
2023/06/08 09:25:36;;;;;;;5.07;3.28;;;;;;;29.86;51.65;101163.22;5115857;28;20038;-78
2023/06/08 09:28:35;;;;;;;3.88;3.17;;;;;;;29.27;54.39;101143.38;5092348;27;20447;-76
2023/06/08 09:31:21;;;;;;;6.70;3.00;;;;;;;28.81;53.49;101155.59;5090960;28;20072;-78
2023/06/08 09:34:10;;;;;;;6.65;3.13;;;;;;;28.56;54.75;101150.59;5090706;28;20036;-78
2023/06/08 09:37:07;;;;;;;7.35;2.90;;;;;;;28.77;54.88;101137.97;5091262;28;20036;-78
2023/06/08 09:39:53;;;;;;;6.10;3.63;;;;;;;29.07;55.45;101148.81;5091040;28;20480;-77
2023/06/08 09:42:46;;;;;;;6.25;3.45;;;;;;;28.47;57.07;101143.28;5090461;28;20028;-77
2023/06/08 09:45:42;;;;;;;7.60;3.15;;;;;;;28.75;54.32;101134.53;5090871;28;20048;-77
2023/06/08 09:48:28;;;;;;;7.07;3.10;;;;;;;28.10;54.38;101126.63;5131965;28;20030;-76
2023/06/08 09:51:15;;;;;;;8.02;3.42;;;;;;;28.32;53.75;101131.09;5131633;28;20122;-76
2023/06/08 09:54:02;;;;;;;5.38;3.08;;;;;;;28.36;52.95;101122.59;5121830;28;20093;-76
2023/06/08 09:56:53;;;;;;;5.72;3.10;;;;;;;28.20;49.65;101121.34;5148574;28;20019;-75
2023/06/08 09:59:46;;;;;;;4.80;2.95;;;;;;;28.19;51.89;101123.16;5148193;28;20477;-74
2023/06/08 10:02:44;;;;;;;4.45;2.75;;;;;;;27.95;53.22;101109.03;5139191;28;20049;-77
2023/06/08 10:05:33;;;;;;;4.80;2.90;;;;;;;27.51;53.51;101114.50;5119173;28;20102;-76
2023/06/08 10:08:22;;;;;;;8.25;2.92;;;;;;;28.57;53.59;101106.47;5117066;28;20019;-76
2023/06/08 10:11:10;;;;;;;4.07;2.75;;;;;;;28.30;51.26;101096.16;5131521;28;20470;-76
2023/06/08 10:13:57;;;;;;;5.35;3.17;;;;;;;28.33;53.07;101097.75;5102718;28;20038;-77
2023/06/08 10:16:42;;;;;;;4.55;2.92;;;;;;;28.58;51.22;101095.56;5131340;28;20027;-78
2023/06/08 10:19:31;;;;;;;4.35;3.30;;;;;;;29.08;51.20;101089.31;5131015;28;20382;-77
2023/06/08 10:22:18;;;;;;;4.50;2.88;;;;;;;29.31;50.27;101080.03;5131875;28;20027;-77
2023/06/08 10:25:06;;;;;;;8.80;3.05;;;;;;;29.02;50.50;101081.78;5132058;28;20042;-77
2023/06/08 10:27:52;;;;;;;5.13;2.97;;;;;;;29.00;50.51;101082.88;5130788;28;20116;-77
2023/06/08 10:30:41;;;;;;;9.20;2.80;;;;;;;28.97;51.44;101088.53;5130729;28;20027;-76
2023/06/08 10:33:30;;;;;;;4.20;2.67;;;;;;;28.06;53.27;101078.50;5150310;28;20051;-76
2023/06/08 10:36:16;;;;;;;3.83;2.90;;;;;;;28.31;53.29;101073.63;5132795;28;20020;-76
2023/06/08 10:39:10;;;;;;;8.75;2.65;;;;;;;28.64;53.17;101068.03;5108360;28;20032;-78
2023/06/08 10:41:59;;;;;;;7.22;2.90;;;;;;;28.44;52.89;101059.97;5117487;28;20035;-77
2023/06/08 10:45:02;;;;;;;4.13;2.70;;;;;;;28.18;52.28;101056.78;5117981;28;20037;-77
2023/06/08 10:48:04;;;;;;;7.72;3.22;;;;;;;29.16;50.75;101058.94;5117872;28;20020;-77
2023/06/08 10:50:50;;;;;;;9.82;3.22;;;;;;;28.25;46.93;101051.72;5117525;28;20031;-78
2023/06/08 10:53:40;;;;;;;5.40;3.20;;;;;;;28.84;44.64;101061.75;5117189;28;20059;-77
2023/06/08 10:56:27;;;;;;;2.97;2.58;;;;;;;28.86;45.58;101046.31;5117294;28;20102;-77
2023/06/08 10:59:12;;;;;;;6.32;2.60;;;;;;;29.07;44.88;101049.84;5101991;28;20407;-76
2023/06/08 11:02:05;;;;;;;4.75;2.75;;;;;;;29.37;43.49;101040.84;5102597;28;20015;-77
2023/06/08 11:04:53;;;;;;;7.72;2.78;;;;;;;29.88;43.31;101026.13;5102263;28;20439;-76
2023/06/08 11:07:40;;;;;;;3.50;2.60;;;;;;;29.78;43.49;101025.25;5103034;28;20032;-76
2023/06/08 11:10:26;;;;;;;4.70;2.70;;;;;;;29.54;43.84;101029.34;5101764;28;20024;-77
2023/06/08 11:13:18;;;;;;;5.75;2.60;;;;;;;29.05;44.84;101029.38;5117294;28;20096;-77
2023/06/08 11:16:03;;;;;;;5.90;2.70;;;;;;;29.22;43.00;101031.41;5104197;28;20047;-78
2023/06/08 11:18:51;;;;;;;7.70;2.80;;;;;;;29.15;43.27;101025.72;5132781;28;20028;-76
2023/06/08 11:21:37;;;;;;;6.00;2.90;;;;;;;29.86;43.03;101014.59;5118967;28;20042;-77
2023/06/08 11:24:30;;;;;;;4.95;2.58;;;;;;;29.68;44.53;101016.31;5116905;28;20371;-78
2023/06/08 11:27:17;;;;;;;4.57;2.88;;;;;;;30.22;42.31;101016.59;5101330;28;20117;-77
2023/06/08 11:30:03;;;;;;;4.90;2.70;;;;;;;29.97;42.08;101022.56;5117134;28;20038;-77
2023/06/08 11:32:50;;;;;;;5.18;3.05;;;;;;;30.54;41.04;101014.38;5116268;28;20373;-77
2023/06/08 11:35:36;;;;;;;10.48;3.35;;;;;;;30.46;40.48;101019.69;5115550;28;20027;-77
2023/06/08 11:38:23;;;;;;;6.68;2.70;;;;;;;29.01;40.72;101014.44;5116583;28;20038;-78
2023/06/08 11:41:10;;;;;;;8.82;2.90;;;;;;;29.83;40.66;101012.22;5101233;28;20031;-78
2023/06/08 11:43:57;;;;;;;5.25;2.55;;;;;;;30.12;40.35;101007.63;5102228;28;20031;-77
2023/06/08 11:46:43;;;;;;;7.82;2.63;;;;;;;29.68;40.93;101008.22;5116090;28;20093;-77
2023/06/08 11:49:55;;;;;;;4.57;2.50;;;;;;;30.11;39.99;100992.41;5101403;28;20024;-77
2023/06/08 11:52:42;;;;;;;5.22;2.70;;;;;;;30.82;38.58;100997.22;5115823;28;20462;-77
2023/06/08 11:55:28;;;;;;;5.30;2.88;;;;;;;30.57;39.39;100989.75;5116036;28;20059;-76
2023/06/08 11:58:15;;;;;;;4.95;2.58;;;;;;;30.61;38.81;100996.56;5098122;28;20107;-76
2023/06/08 12:01:08;;;;;;;8.77;2.90;;;;;;;30.72;39.44;100996.44;5122779;27;20019;-75
2023/06/08 12:03:54;;;;;;;4.22;2.75;;;;;;;30.77;38.87;100996.84;5115585;28;20454;-76
2023/06/08 12:06:39;;;;;;;6.22;2.60;;;;;;;30.52;38.65;101007.41;5095279;28;20058;-76
2023/06/08 12:09:25;;;;;;;4.18;2.40;;;;;;;30.48;38.51;100992.50;5095154;28;20024;-75
2023/06/08 12:12:11;;;;;;;4.57;2.38;;;;;;;30.28;39.27;100990.84;5080521;28;20020;-76
2023/06/08 12:14:57;;;;;;;6.40;3.25;;;;;;;30.68;39.05;100983.31;5095599;28;20031;-76
2023/06/08 12:17:43;;;;;;;6.22;2.63;;;;;;;31.11;38.99;100978.16;5106810;28;20080;-76
2023/06/08 12:20:32;;;;;;;5.72;2.70;;;;;;;29.81;39.95;100987.16;5115037;28;20368;-75
2023/06/08 12:23:18;;;;;;;5.68;2.80;;;;;;;29.64;40.37;100979.78;5103243;28;20024;-81
2023/06/08 12:26:04;;;;;;;5.47;2.95;;;;;;;30.17;39.70;100974.75;5101435;28;20441;-83
2023/06/08 12:28:49;;;;;;;8.00;3.00;;;;;;;29.76;40.15;100966.97;5115606;28;20082;-82
2023/06/08 12:31:35;;;;;;;6.45;2.70;;;;;;;30.06;39.29;100964.94;5115805;28;20440;-82
2023/06/08 12:34:21;;;;;;;5.07;2.80;;;;;;;29.58;40.15;100969.53;5114530;28;20032;-82
2023/06/08 12:37:08;;;;;;;6.00;2.72;;;;;;;30.26;38.54;100973.91;5100484;28;20423;-83
2023/06/08 12:39:54;;;;;;;4.63;2.60;;;;;;;30.21;38.71;100977.03;5101458;28;20019;-80
2023/06/08 12:42:42;;;;;;;5.95;2.63;;;;;;;29.89;38.54;100972.97;5102302;28;20367;-80
2023/06/08 12:45:28;;;;;;;9.18;3.08;;;;;;;29.93;37.85;100964.41;5102239;28;20031;-82
2023/06/08 12:48:14;;;;;;;6.30;2.63;;;;;;;30.64;37.68;100947.59;5103304;28;20034;-83
2023/06/08 12:51:00;;;;;;;3.92;2.65;;;;;;;30.50;36.79;100945.34;5107167;28;20131;-83